createdAt,value
2023-08-23T00:01:21.276Z,101347.19
2023-08-23T00:04:03.679Z,101343.53
2023-08-23T00:06:46.501Z,101343.41
2023-08-23T00:09:32.975Z,101341.03
2023-08-23T00:12:11.069Z,101347.13
2023-08-23T00:14:51.741Z,101350.06
2023-08-23T00:17:33.464Z,101346.59
2023-08-23T00:20:15.558Z,101352.84
2023-08-23T00:22:54.104Z,101343.00
2023-08-23T00:25:34.348Z,101350.31
2023-08-23T00:28:14.241Z,101347.47
2023-08-23T00:31:05.321Z,101339.84
2023-08-23T00:33:43.305Z,101331.94
2023-08-23T00:36:25.958Z,101327.34
2023-08-23T00:39:05.776Z,101338.03
2023-08-23T00:41:45.138Z,101330.13
2023-08-23T00:44:24.746Z,101326.38
2023-08-23T00:47:04.373Z,101323.91
2023-08-23T00:49:46.839Z,101321.41
2023-08-23T00:52:27.718Z,101324.16
2023-08-23T00:58:01.977Z,101333.03
2023-08-23T01:00:41.636Z,101338.38
2023-08-23T01:03:25.131Z,101332.19
2023-08-23T01:06:16.015Z,101328.66
2023-08-23T01:08:54.975Z,101327.13
2023-08-23T01:11:41.305Z,101330.72
2023-08-23T01:14:32.904Z,101328.03
2023-08-23T01:17:12.456Z,101324.53
2023-08-23T01:19:57.486Z,101327.41
2023-08-23T01:22:36.738Z,101318.59
2023-08-23T01:25:16.317Z,101324.81
2023-08-23T01:27:57.147Z,101323.97
2023-08-23T01:30:37.042Z,101322.34
2023-08-23T01:33:35.020Z,101318.81
2023-08-23T01:36:44.142Z,101320.59
2023-08-23T01:39:29.937Z,101322.63
2023-08-23T01:42:07.897Z,101323.63
2023-08-23T01:44:48.727Z,101323.84
2023-08-23T01:47:27.310Z,101312.34
2023-08-23T01:50:08.890Z,101317.53
2023-08-23T01:52:49.701Z,101312.38
2023-08-23T01:55:26.327Z,101320.41
2023-08-23T01:58:06.435Z,101318.81
2023-08-23T02:00:45.879Z,101313.47
2023-08-23T02:03:25.190Z,101307.28
2023-08-23T02:06:05.647Z,101306.56
2023-08-23T02:08:46.730Z,101308.22
2023-08-23T02:11:25.267Z,101309.09
2023-08-23T02:14:04.813Z,101306.50
2023-08-23T02:16:42.265Z,101311.06
2023-08-23T02:19:20.555Z,101305.09
2023-08-23T02:22:00.091Z,101306.72
2023-08-23T02:24:41.501Z,101310.47
2023-08-23T02:27:22.118Z,101303.44
2023-08-23T02:30:03.228Z,101300.75
2023-08-23T02:32:43.321Z,101298.09
2023-08-23T02:35:24.307Z,101298.97
2023-08-23T02:38:07.130Z,101301.03
2023-08-23T02:40:50.429Z,101307.25
2023-08-23T02:43:29.018Z,101302.75
2023-08-23T02:46:09.783Z,101306.50
2023-08-23T02:48:49.688Z,101298.78
2023-08-23T02:51:29.640Z,101302.41
2023-08-23T02:54:11.157Z,101299.66
2023-08-23T02:56:53.020Z,101303.97
2023-08-23T02:59:33.596Z,101308.38
2023-08-23T03:02:12.776Z,101311.03
2023-08-23T03:04:51.221Z,101320.81
2023-08-23T03:07:30.710Z,101318.13
2023-08-23T03:10:10.828Z,101326.44
2023-08-23T03:12:52.212Z,101321.31
2023-08-23T03:15:35.916Z,101321.31
2023-08-23T03:18:20.386Z,101314.09
2023-08-23T03:21:01.080Z,101314.13
2023-08-23T03:23:42.276Z,101319.59
2023-08-23T03:26:20.406Z,101321.56
2023-08-23T03:29:06.846Z,101321.56
2023-08-23T03:31:45.479Z,101329.56
2023-08-23T03:34:32.174Z,101325.84
2023-08-23T03:37:10.540Z,101335.78
2023-08-23T03:39:51.516Z,101334.00
2023-08-23T03:42:35.236Z,101338.66
2023-08-23T03:45:15.938Z,101333.34
2023-08-23T03:47:55.545Z,101331.50
2023-08-23T03:50:42.319Z,101337.84
2023-08-23T03:53:25.016Z,101332.56
2023-08-23T03:56:12.237Z,101332.63
2023-08-23T03:58:52.468Z,101338.97
2023-08-23T04:01:36.675Z,101334.47
2023-08-23T04:04:17.867Z,101333.56
2023-08-23T04:06:59.786Z,101330.00
2023-08-23T04:09:40.978Z,101332.75
2023-08-23T04:12:20.869Z,101334.72
2023-08-23T04:15:00.716Z,101334.81
2023-08-23T04:17:39.894Z,101340.19
2023-08-23T04:20:22.490Z,101335.53
2023-08-23T04:23:07.518Z,101331.22
2023-08-23T04:25:45.656Z,101327.69
2023-08-23T04:28:24.300Z,101329.50
2023-08-23T04:31:11.628Z,101331.19
2023-08-23T04:33:58.772Z,101323.28
2023-08-23T04:36:39.404Z,101325.88
2023-08-23T04:43:09.578Z,101312.50
2023-08-23T04:45:42.028Z,101308.09
2023-08-23T04:48:17.523Z,101318.84
2023-08-23T04:51:04.877Z,101315.41
2023-08-23T04:53:38.330Z,101314.63
2023-08-23T04:56:12.092Z,101318.13
2023-08-23T04:58:45.599Z,101319.06
2023-08-23T05:01:21.878Z,101317.34
2023-08-23T05:03:56.412Z,101322.72
2023-08-23T05:06:31.669Z,101321.88
2023-08-23T05:09:13.490Z,101323.78
2023-08-23T05:11:47.026Z,101324.66
2023-08-23T05:14:23.314Z,101327.31
2023-08-23T05:16:58.859Z,101325.44
2023-08-23T05:19:32.150Z,101321.88
2023-08-23T05:22:07.330Z,101321.06
2023-08-23T05:24:41.512Z,101321.16
2023-08-23T05:27:17.369Z,101326.47
2023-08-23T05:29:51.908Z,101323.84
2023-08-23T05:32:27.317Z,101326.66
2023-08-23T05:35:04.190Z,101318.53
2023-08-23T05:37:39.146Z,101328.28
2023-08-23T05:40:12.921Z,101330.88
2023-08-23T05:42:46.958Z,101319.38
2023-08-23T05:45:22.475Z,101316.81
2023-08-23T05:48:00.747Z,101313.25
2023-08-23T05:50:37.503Z,101311.44
2023-08-23T05:53:17.445Z,101311.34
2023-08-23T05:55:57.777Z,101307.75
2023-08-23T05:58:34.355Z,101304.28
2023-08-23T06:01:11.936Z,101302.50
2023-08-23T06:03:46.718Z,101308.72
2023-08-23T06:06:21.200Z,101307.69
2023-08-23T06:08:57.558Z,101309.47
2023-08-23T06:11:33.038Z,101309.44
2023-08-23T06:14:22.896Z,101311.94
2023-08-23T06:16:58.391Z,101308.25
2023-08-23T06:19:35.761Z,101307.31
2023-08-23T06:22:11.261Z,101307.28
2023-08-23T06:24:45.541Z,101301.88
2023-08-23T06:27:21.058Z,101303.47
2023-08-23T06:29:59.473Z,101306.94
2023-08-23T06:32:34.157Z,101305.94
2023-08-23T06:35:08.335Z,101309.34
2023-08-23T06:37:42.212Z,101310.06
2023-08-23T06:40:20.156Z,101316.00
2023-08-23T06:42:54.484Z,101315.81
2023-08-23T06:48:04.699Z,101321.53
2023-08-23T06:50:40.255Z,101326.78
2023-08-23T06:53:12.831Z,101324.91
2023-08-23T06:55:45.590Z,101333.56
2023-08-23T06:58:33.128Z,101336.16
2023-08-23T07:01:04.607Z,101343.00
2023-08-23T07:03:36.254Z,101344.56
2023-08-23T07:06:15.473Z,101335.44
2023-08-23T07:08:50.722Z,101335.06
2023-08-23T07:11:24.525Z,101347.19
2023-08-23T07:13:55.519Z,101343.53
2023-08-23T07:16:27.477Z,101346.03
2023-08-23T07:19:00.737Z,101355.38
2023-08-23T07:21:32.783Z,101354.09
2023-08-23T07:24:07.577Z,101357.94
2023-08-23T07:26:38.272Z,101360.19
2023-08-23T07:29:09.252Z,101354.50
2023-08-23T07:31:42.820Z,101343.41
2023-08-23T07:34:10.835Z,101349.56
2023-08-23T07:36:41.996Z,101344.06
2023-08-23T07:39:11.636Z,101338.47
2023-08-23T07:41:44.853Z,101338.91
2023-08-23T07:44:16.441Z,101331.16
2023-08-23T07:46:47.767Z,101338.84
2023-08-23T07:49:19.250Z,101338.03
2023-08-23T07:51:51.672Z,101335.34
2023-08-23T07:54:23.644Z,101337.56
2023-08-23T07:56:54.218Z,101335.66
2023-08-23T07:59:27.452Z,101335.41
2023-08-23T08:01:57.277Z,101328.63
2023-08-23T08:04:29.007Z,101328.94
2023-08-23T08:07:00.402Z,101329.31
2023-08-23T08:09:29.583Z,101325.69
2023-08-23T08:12:00.975Z,101314.41
2023-08-23T08:14:32.867Z,101307.34
2023-08-23T08:17:04.402Z,101316.03
2023-08-23T08:19:37.133Z,101314.09
2023-08-23T08:22:07.940Z,101304.97
2023-08-23T08:24:39.450Z,101307.16
2023-08-23T08:27:10.351Z,101307.28
2023-08-23T08:29:44.124Z,101303.81
2023-08-23T08:32:15.846Z,101299.84
2023-08-23T08:34:46.276Z,101305.00
2023-08-23T08:37:19.072Z,101304.59
2023-08-23T08:39:49.647Z,101304.03
2023-08-23T08:42:22.169Z,101304.97
2023-08-23T08:44:53.358Z,101305.94
2023-08-23T08:47:26.023Z,101300.84
2023-08-23T08:49:58.237Z,101301.34
2023-08-23T08:52:29.157Z,101297.28
2023-08-23T08:55:02.121Z,101299.53
2023-08-23T08:57:32.927Z,101311.31
2023-08-23T09:00:04.543Z,101305.28
2023-08-23T09:02:37.345Z,101308.38
2023-08-23T09:05:09.894Z,101311.16
2023-08-23T09:07:41.786Z,101331.19
2023-08-23T09:10:14.162Z,101329.56
2023-08-23T09:12:46.701Z,101312.81
2023-08-23T09:15:22.941Z,101311.94
2023-08-23T09:17:57.112Z,101313.25
2023-08-23T09:20:29.781Z,101298.28
2023-08-23T09:23:00.126Z,101291.44
2023-08-23T09:25:31.926Z,101291.78
2023-08-23T09:28:03.347Z,101305.53
2023-08-23T09:30:40.096Z,101317.84
2023-08-23T09:33:16.584Z,101303.16
2023-08-23T09:35:56.554Z,101306.47
2023-08-23T09:38:27.866Z,101307.50
2023-08-23T09:41:00.802Z,101305.53
2023-08-23T09:43:36.514Z,101311.09
2023-08-23T09:46:09.003Z,101315.66
2023-08-23T09:48:40.966Z,101316.97
2023-08-23T09:51:13.924Z,101315.88
2023-08-23T09:53:48.844Z,101313.44
2023-08-23T09:56:21.668Z,101322.31
2023-08-23T09:58:54.538Z,101319.63
2023-08-23T10:01:33.832Z,101319.50
2023-08-23T10:04:06.967Z,101314.88
2023-08-23T10:06:39.788Z,101313.78
2023-08-23T10:09:13.240Z,101312.75
2023-08-23T10:11:55.348Z,101316.03
2023-08-23T10:14:26.963Z,101304.59
2023-08-23T10:16:59.955Z,101312.41
2023-08-23T10:19:31.754Z,101316.78
2023-08-23T10:22:02.855Z,101318.25
2023-08-23T10:24:39.297Z,101312.19
2023-08-23T10:27:11.518Z,101311.84
2023-08-23T10:29:43.834Z,101312.44
2023-08-23T10:32:19.105Z,101313.72
2023-08-23T10:34:50.683Z,101313.31
2023-08-23T10:37:23.048Z,101320.91
2023-08-23T10:39:56.095Z,101310.09
2023-08-23T10:42:28.591Z,101307.72
2023-08-23T10:45:03.016Z,101313.06
2023-08-23T10:47:40.513Z,101306.84
2023-08-23T10:50:11.757Z,101311.31
2023-08-23T10:52:43.878Z,101302.66
2023-08-23T10:55:16.490Z,101298.34
2023-08-23T10:57:49.131Z,101295.63
2023-08-23T11:00:21.746Z,101289.63
2023-08-23T11:02:52.775Z,101280.84
2023-08-23T11:05:30.636Z,101274.63
2023-08-23T11:08:03.111Z,101278.72
2023-08-23T11:10:37.622Z,101270.78
2023-08-23T11:13:09.164Z,101261.88
2023-08-23T11:15:39.739Z,101259.38
2023-08-23T11:18:12.532Z,101242.19
2023-08-23T11:20:46.915Z,101245.25
2023-08-23T11:23:20.280Z,101249.75
2023-08-23T11:25:50.743Z,101237.03
2023-08-23T11:28:22.208Z,101235.75
2023-08-23T11:31:46.565Z,101234.63
2023-08-23T11:34:16.209Z,101237.03
2023-08-23T11:36:47.227Z,101230.91
2023-08-23T11:39:18.390Z,101234.69
2023-08-23T11:41:51.602Z,101230.16
2023-08-23T11:44:26.563Z,101230.41
2023-08-23T11:47:02.021Z,101229.16
2023-08-23T11:49:33.619Z,101224.88
2023-08-23T11:52:07.579Z,101227.81
2023-08-23T11:54:44.801Z,101231.53
2023-08-23T11:57:23.438Z,101224.75
2023-08-23T11:59:55.102Z,101231.72
2023-08-23T12:02:28.795Z,101230.16
2023-08-23T12:05:02.490Z,101225.34
2023-08-23T12:07:34.371Z,101227.66
2023-08-23T12:10:07.132Z,101232.41
2023-08-23T12:12:46.298Z,101235.19
2023-08-23T12:15:18.599Z,101212.72
2023-08-23T12:17:51.290Z,101220.84
2023-08-23T12:20:26.525Z,101220.00
2023-08-23T12:23:01.200Z,101207.69
2023-08-23T12:25:32.172Z,101210.16
2023-08-23T12:28:04.745Z,101219.34
2023-08-23T12:30:37.736Z,101222.19
2023-08-23T12:33:09.699Z,101230.88
2023-08-23T12:35:42.009Z,101228.28
2023-08-23T12:38:13.976Z,101216.06
2023-08-23T12:40:46.361Z,101207.91
2023-08-23T12:43:18.591Z,101203.53
2023-08-23T12:45:51.869Z,101201.53
2023-08-23T12:48:23.113Z,101205.50
2023-08-23T12:50:56.455Z,101208.94
2023-08-23T12:53:32.225Z,101204.97
2023-08-23T12:56:05.723Z,101199.34
2023-08-23T12:58:39.849Z,101193.13
2023-08-23T13:01:13.675Z,101198.59
2023-08-23T13:03:46.309Z,101202.69
2023-08-23T13:06:19.699Z,101212.34
2023-08-23T13:08:51.769Z,101198.72
2023-08-23T13:11:23.954Z,101188.53
2023-08-23T13:13:55.762Z,101166.56
2023-08-23T13:16:28.456Z,101168.72
2023-08-23T13:19:03.592Z,101165.00
2023-08-23T13:21:42.002Z,101162.78
2023-08-23T13:24:29.032Z,101172.84
2023-08-23T13:27:04.106Z,101167.94
2023-08-23T13:29:36.831Z,101163.41
2023-08-23T13:32:21.389Z,101161.72
2023-08-23T13:35:00.486Z,101162.88
2023-08-23T13:37:32.234Z,101161.75
2023-08-23T13:40:03.598Z,101158.44
2023-08-23T13:42:40.828Z,101149.84
2023-08-23T13:45:15.664Z,101128.47
2023-08-23T13:47:44.932Z,101117.81
2023-08-23T13:50:19.238Z,101113.25
2023-08-23T13:52:51.889Z,101108.91
2023-08-23T13:55:24.765Z,101098.78
2023-08-23T13:57:58.828Z,101088.25
2023-08-23T14:00:33.216Z,101088.09
2023-08-23T14:03:07.648Z,101078.31
2023-08-23T14:05:39.327Z,101075.97
2023-08-23T14:08:12.004Z,101068.22
2023-08-23T14:10:43.227Z,101057.34
2023-08-23T14:13:16.656Z,101057.09
2023-08-23T14:15:47.351Z,101052.28
2023-08-23T14:18:22.533Z,101060.75
2023-08-23T14:20:54.686Z,101065.00
2023-08-23T14:23:27.071Z,101057.75
2023-08-23T14:25:59.130Z,101055.94
2023-08-23T14:28:32.130Z,101046.69
2023-08-23T14:31:04.357Z,101045.63
2023-08-23T14:33:34.400Z,101043.09
2023-08-23T14:36:08.108Z,101032.34
2023-08-23T14:38:41.467Z,101025.84
2023-08-23T14:41:28.504Z,101012.63
2023-08-23T14:44:10.042Z,101011.97
2023-08-23T14:46:41.644Z,101007.44
2023-08-23T14:49:15.708Z,101009.19
2023-08-23T14:51:45.983Z,101001.44
2023-08-23T14:54:19.024Z,100997.13
2023-08-23T14:56:49.115Z,101005.03
2023-08-23T14:59:19.834Z,100998.13
2023-08-23T15:01:54.016Z,100996.97
2023-08-23T15:04:25.905Z,100975.88
2023-08-23T15:06:58.555Z,100980.81
2023-08-23T15:09:31.175Z,100966.28
2023-08-23T15:12:01.561Z,100954.88
2023-08-23T15:14:33.310Z,100949.97
2023-08-23T15:17:05.993Z,100965.31
2023-08-23T15:19:36.996Z,100964.34
2023-08-23T15:22:17.069Z,100975.66
2023-08-23T15:24:52.984Z,100976.66
2023-08-23T15:27:41.381Z,100983.31
2023-08-23T15:30:16.017Z,100989.53
2023-08-23T15:32:49.450Z,101002.22
2023-08-23T15:35:28.448Z,101003.34
2023-08-23T15:38:06.271Z,101012.00
2023-08-23T15:40:41.423Z,101004.97
2023-08-23T15:43:16.779Z,101017.53
2023-08-23T15:45:53.126Z,101018.00
2023-08-23T15:48:26.294Z,101016.59
2023-08-23T15:51:14.601Z,101018.97
2023-08-23T15:53:47.428Z,101010.00
2023-08-23T15:56:21.047Z,100995.59
2023-08-23T15:58:55.986Z,100996.91
2023-08-23T16:01:33.372Z,100992.34
2023-08-23T16:04:06.564Z,100993.56
2023-08-23T16:06:40.503Z,101002.59
2023-08-23T16:09:16.980Z,100996.19
2023-08-23T16:11:51.271Z,100996.31
2023-08-23T16:14:31.982Z,100991.72
2023-08-23T16:17:03.339Z,100994.25
2023-08-23T16:19:36.240Z,100999.88
2023-08-23T16:22:10.149Z,100996.19
2023-08-23T16:24:43.665Z,100991.09
2023-08-23T16:27:17.306Z,100979.53
2023-08-23T16:29:48.589Z,100982.84
2023-08-23T16:32:25.126Z,100988.03
2023-08-23T16:35:00.530Z,100981.97
2023-08-23T16:37:35.832Z,100977.69
2023-08-23T16:40:15.748Z,100974.97
2023-08-23T16:42:55.891Z,100969.78
2023-08-23T16:45:33.424Z,100966.81
2023-08-23T16:48:12.289Z,100977.91
2023-08-23T16:50:53.980Z,100960.63
2023-08-23T16:53:31.560Z,100960.88
2023-08-23T16:56:11.435Z,100945.34
2023-08-23T16:58:50.653Z,100952.50
2023-08-23T17:01:27.429Z,100952.09
2023-08-23T17:04:09.366Z,100953.06
2023-08-23T17:06:43.283Z,100952.31
2023-08-23T17:09:24.022Z,100959.59
2023-08-23T17:11:58.584Z,100959.09
2023-08-23T17:14:36.215Z,100955.47
2023-08-23T17:17:17.275Z,100959.19
2023-08-23T17:19:56.286Z,100955.59
2023-08-23T17:22:38.597Z,100961.28
2023-08-23T17:25:25.731Z,100961.88
2023-08-23T17:28:15.302Z,100959.78
2023-08-23T17:30:49.071Z,100959.97
2023-08-23T17:33:30.171Z,100965.91
2023-08-23T17:36:09.802Z,100960.03
2023-08-23T17:38:48.044Z,100962.13
2023-08-23T17:41:23.762Z,100960.28
2023-08-23T17:44:00.628Z,100962.00
2023-08-23T17:46:42.751Z,100961.16
2023-08-23T17:49:17.649Z,100959.25
2023-08-23T17:51:54.972Z,100967.72
2023-08-23T17:54:36.496Z,100970.97
2023-08-23T17:57:12.097Z,100970.88
2023-08-23T17:59:45.321Z,100968.28
2023-08-23T18:02:22.334Z,100968.44
2023-08-23T18:04:58.539Z,100965.09
2023-08-23T18:07:36.443Z,100967.44
2023-08-23T18:10:12.576Z,100970.19
2023-08-23T18:12:53.870Z,100949.03
2023-08-23T18:15:29.630Z,100964.50
2023-08-23T18:18:07.167Z,100965.78
2023-08-23T18:20:41.217Z,100967.75
2023-08-23T18:23:16.084Z,100968.63
2023-08-23T18:25:53.757Z,100957.81
2023-08-23T18:28:27.038Z,100963.50
2023-08-23T18:31:12.213Z,100960.78
2023-08-23T18:34:01.234Z,100969.75
2023-08-23T18:36:37.164Z,100959.88
2023-08-23T18:39:14.019Z,100965.09
2023-08-23T18:41:59.462Z,100961.28
2023-08-23T18:44:42.229Z,100972.47
2023-08-23T18:47:16.791Z,100967.78
2023-08-23T18:49:57.158Z,100970.78
2023-08-23T18:52:36.093Z,100961.94
2023-08-23T18:55:32.922Z,100967.53
2023-08-23T18:58:24.077Z,100964.84
2023-08-23T19:04:41.992Z,100966.31
2023-08-23T19:07:32.912Z,100967.91
2023-08-23T19:10:44.318Z,100969.66
2023-08-23T19:13:17.333Z,100974.06
2023-08-23T19:15:50.657Z,100977.69
2023-08-23T19:18:25.462Z,100978.00
2023-08-23T19:20:59.148Z,100985.06
2023-08-23T19:23:31.350Z,100978.72
2023-08-23T19:26:03.535Z,100978.56
2023-08-23T19:28:39.874Z,100993.25
2023-08-23T19:31:12.784Z,100987.47
2023-08-23T19:33:52.225Z,100993.22
2023-08-23T19:36:24.502Z,100987.06
2023-08-23T19:38:58.180Z,100991.25
2023-08-23T19:41:31.272Z,100997.22
2023-08-23T19:44:04.827Z,101001.47
2023-08-23T19:46:37.989Z,101000.94
2023-08-23T19:49:14.276Z,101005.03
2023-08-23T19:51:46.023Z,101011.13
2023-08-23T19:54:20.147Z,101009.47
2023-08-23T19:56:54.466Z,101018.66
2023-08-23T19:59:27.963Z,101022.41
2023-08-23T20:02:00.472Z,101026.56
2023-08-23T20:04:34.009Z,101026.81
2023-08-23T20:07:06.647Z,101030.63
2023-08-23T20:09:38.867Z,101021.16
2023-08-23T20:12:11.903Z,101040.38
2023-08-23T20:14:46.493Z,101045.91
2023-08-23T20:17:21.577Z,101050.66
2023-08-23T20:19:57.027Z,101042.53
2023-08-23T20:22:30.098Z,101042.31
2023-08-23T20:25:05.132Z,101039.59
2023-08-23T20:27:40.286Z,101041.06
2023-08-23T20:30:15.255Z,101038.81
2023-08-23T20:32:54.086Z,101038.88
2023-08-23T20:35:40.762Z,101035.41
2023-08-23T20:38:16.893Z,101043.03
2023-08-23T20:40:55.580Z,101038.97
2023-08-23T20:43:44.036Z,101047.97
2023-08-23T20:46:33.098Z,101049.44
2023-08-23T20:49:11.292Z,101048.94
2023-08-23T20:51:53.892Z,101043.16
2023-08-23T20:54:33.330Z,101045.38
2023-08-23T20:57:13.628Z,101048.22
2023-08-23T20:59:55.567Z,101046.16
2023-08-23T21:02:41.902Z,101047.66
2023-08-23T21:05:32.123Z,101043.09
2023-08-23T21:08:15.760Z,101040.75
2023-08-23T21:11:21.617Z,101044.78
2023-08-23T21:14:04.841Z,101046.84
2023-08-23T21:16:46.971Z,101040.91
2023-08-23T21:19:36.733Z,101036.22
2023-08-23T21:22:48.282Z,101041.06
2023-08-23T21:25:25.051Z,101030.53
2023-08-23T21:28:05.178Z,101038.84
2023-08-23T21:30:52.967Z,101034.63
2023-08-23T21:33:43.812Z,101028.56
2023-08-23T21:36:20.767Z,101026.16
2023-08-23T21:39:02.437Z,101027.19
2023-08-23T21:41:58.255Z,101035.09
2023-08-23T21:44:46.016Z,101028.06
2023-08-23T21:47:29.831Z,101031.78
2023-08-23T21:50:22.734Z,101028.47
2023-08-23T21:53:02.681Z,101033.09
2023-08-23T21:55:46.983Z,101031.69
2023-08-23T21:58:27.886Z,101020.69
2023-08-23T22:01:12.896Z,101015.25
2023-08-23T22:03:54.074Z,101020.69
2023-08-23T22:06:36.126Z,101017.44
2023-08-23T22:09:23.178Z,101011.28
2023-08-23T22:12:04.190Z,101017.66
2023-08-23T22:18:36.612Z,101012.00
2023-08-23T22:21:14.257Z,101009.56
2023-08-23T22:23:50.172Z,101006.00
2023-08-23T22:26:27.300Z,101007.00
2023-08-23T22:29:02.234Z,101006.22
2023-08-23T22:31:36.168Z,100999.22
2023-08-23T22:37:42.226Z,100994.56
2023-08-23T22:40:16.628Z,100992.22
2023-08-23T22:42:51.909Z,101003.31
2023-08-23T22:45:26.285Z,100991.78
2023-08-23T22:48:02.840Z,100994.53
2023-08-23T22:50:45.267Z,100995.69
2023-08-23T22:53:24.206Z,100995.25
2023-08-23T22:56:06.915Z,100990.09
2023-08-23T23:01:46.095Z,100982.47
2023-08-23T23:04:21.202Z,100982.84
2023-08-23T23:06:54.489Z,100982.16
2023-08-23T23:09:29.556Z,100969.94
2023-08-23T23:12:04.826Z,100971.75
2023-08-23T23:14:42.492Z,100972.16
2023-08-23T23:17:16.950Z,100963.97
2023-08-23T23:19:51.149Z,100959.94
2023-08-23T23:22:27.113Z,100950.84
2023-08-23T23:25:02.627Z,100945.75
2023-08-23T23:27:35.527Z,100939.63
2023-08-23T23:30:09.921Z,100946.88
2023-08-23T23:32:45.420Z,100941.72
2023-08-23T23:35:22.993Z,100942.19
2023-08-23T23:37:55.773Z,100942.19
2023-08-23T23:40:29.798Z,100933.22
2023-08-23T23:43:05.446Z,100932.63
2023-08-23T23:45:41.481Z,100930.09
2023-08-23T23:48:17.511Z,100931.25
2023-08-23T23:50:51.962Z,100929.75
2023-08-23T23:53:25.689Z,100927.34
2023-08-23T23:56:03.205Z,100924.47
2023-08-23T23:58:40.761Z,100923.81
